sensor_id;sensor_type;location;lat;lon;timestamp;temperature;humidity
70184;DHT22;57554;51.546;6.776;2023-09-19T00:01:20;17.00;67.80
70184;DHT22;57554;51.546;6.776;2023-09-19T00:03:46;17.00;67.80
70184;DHT22;57554;51.546;6.776;2023-09-19T00:06:11;17.00;67.80
70184;DHT22;57554;51.546;6.776;2023-09-19T00:08:41;17.00;67.80
70184;DHT22;57554;51.546;6.776;2023-09-19T00:11:09;17.00;67.90
70184;DHT22;57554;51.546;6.776;2023-09-19T00:13:36;17.00;68.00
70184;DHT22;57554;51.546;6.776;2023-09-19T00:16:09;17.00;68.10
70184;DHT22;57554;51.546;6.776;2023-09-19T00:18:37;16.90;68.10
70184;DHT22;57554;51.546;6.776;2023-09-19T00:21:03;16.90;68.10
70184;DHT22;57554;51.546;6.776;2023-09-19T00:23:30;16.90;68.10
70184;DHT22;57554;51.546;6.776;2023-09-19T00:26:00;16.90;68.20
70184;DHT22;57554;51.546;6.776;2023-09-19T00:28:27;16.80;68.20
70184;DHT22;57554;51.546;6.776;2023-09-19T00:30:52;16.80;68.20
70184;DHT22;57554;51.546;6.776;2023-09-19T00:33:21;16.80;68.20
70184;DHT22;57554;51.546;6.776;2023-09-19T00:35:53;16.80;68.30
70184;DHT22;57554;51.546;6.776;2023-09-19T00:38:20;16.70;68.20
70184;DHT22;57554;51.546;6.776;2023-09-19T00:40:48;16.70;68.30
70184;DHT22;57554;51.546;6.776;2023-09-19T00:43:14;16.70;68.40
70184;DHT22;57554;51.546;6.776;2023-09-19T00:45:43;16.70;68.50
70184;DHT22;57554;51.546;6.776;2023-09-19T00:48:09;16.70;68.50
70184;DHT22;57554;51.546;6.776;2023-09-19T00:50:36;16.60;68.60
70184;DHT22;57554;51.546;6.776;2023-09-19T00:53:02;16.60;68.70
70184;DHT22;57554;51.546;6.776;2023-09-19T00:55:36;16.60;68.80
70184;DHT22;57554;51.546;6.776;2023-09-19T00:58:03;16.50;68.90
70184;DHT22;57554;51.546;6.776;2023-09-19T01:00:28;16.50;69.10
70184;DHT22;57554;51.546;6.776;2023-09-19T01:02:54;16.40;69.20
70184;DHT22;57554;51.546;6.776;2023-09-19T01:05:21;16.40;69.30
70184;DHT22;57554;51.546;6.776;2023-09-19T01:07:46;16.40;69.30
70184;DHT22;57554;51.546;6.776;2023-09-19T01:10:17;16.40;69.40
70184;DHT22;57554;51.546;6.776;2023-09-19T01:16:07;16.30;69.70
70184;DHT22;57554;51.546;6.776;2023-09-19T01:18:59;16.30;69.70
70184;DHT22;57554;51.546;6.776;2023-09-19T01:30:14;16.20;70.10
70184;DHT22;57554;51.546;6.776;2023-09-19T01:32:42;16.20;70.10
70184;DHT22;57554;51.546;6.776;2023-09-19T01:35:08;16.20;70.10
70184;DHT22;57554;51.546;6.776;2023-09-19T01:37:38;16.10;70.20
70184;DHT22;57554;51.546;6.776;2023-09-19T01:40:09;16.10;70.20
70184;DHT22;57554;51.546;6.776;2023-09-19T01:42:50;16.10;70.30
70184;DHT22;57554;51.546;6.776;2023-09-19T01:51:10;16.00;70.30
70184;DHT22;57554;51.546;6.776;2023-09-19T01:53:43;16.00;70.30
70184;DHT22;57554;51.546;6.776;2023-09-19T01:56:15;16.00;70.30
70184;DHT22;57554;51.546;6.776;2023-09-19T01:58:49;15.90;70.30
70184;DHT22;57554;51.546;6.776;2023-09-19T02:01:20;15.90;70.20
70184;DHT22;57554;51.546;6.776;2023-09-19T02:03:50;15.90;70.10
70184;DHT22;57554;51.546;6.776;2023-09-19T02:06:17;15.90;70.10
70184;DHT22;57554;51.546;6.776;2023-09-19T02:08:43;15.90;70.00
70184;DHT22;57554;51.546;6.776;2023-09-19T02:11:13;15.90;69.90
70184;DHT22;57554;51.546;6.776;2023-09-19T02:13:38;15.80;69.90
70184;DHT22;57554;51.546;6.776;2023-09-19T02:16:06;15.80;69.80
70184;DHT22;57554;51.546;6.776;2023-09-19T02:18:32;15.80;69.70
70184;DHT22;57554;51.546;6.776;2023-09-19T02:21:03;15.80;69.60
70184;DHT22;57554;51.546;6.776;2023-09-19T02:23:29;15.80;69.60
70184;DHT22;57554;51.546;6.776;2023-09-19T02:25:56;15.80;69.40
70184;DHT22;57554;51.546;6.776;2023-09-19T02:28:29;15.70;69.30
70184;DHT22;57554;51.546;6.776;2023-09-19T02:30:56;15.70;69.20
70184;DHT22;57554;51.546;6.776;2023-09-19T02:33:22;15.70;69.00
70184;DHT22;57554;51.546;6.776;2023-09-19T02:35:47;15.70;69.00
70184;DHT22;57554;51.546;6.776;2023-09-19T02:38:13;15.70;68.80
70184;DHT22;57554;51.546;6.776;2023-09-19T02:40:40;15.70;68.80
70184;DHT22;57554;51.546;6.776;2023-09-19T02:43:05;15.70;68.70
70184;DHT22;57554;51.546;6.776;2023-09-19T02:45:33;15.70;68.50
70184;DHT22;57554;51.546;6.776;2023-09-19T02:47:59;15.70;68.40
70184;DHT22;57554;51.546;6.776;2023-09-19T02:50:25;15.70;68.30
70184;DHT22;57554;51.546;6.776;2023-09-19T02:52:51;15.70;68.30
70184;DHT22;57554;51.546;6.776;2023-09-19T02:55:18;15.70;68.30
70184;DHT22;57554;51.546;6.776;2023-09-19T02:57:54;15.70;68.10
70184;DHT22;57554;51.546;6.776;2023-09-19T03:00:23;15.70;67.80
70184;DHT22;57554;51.546;6.776;2023-09-19T03:02:50;15.70;67.60
70184;DHT22;57554;51.546;6.776;2023-09-19T03:05:17;15.70;67.50
70184;DHT22;57554;51.546;6.776;2023-09-19T03:07:43;15.70;67.40
70184;DHT22;57554;51.546;6.776;2023-09-19T03:10:11;15.70;67.20
70184;DHT22;57554;51.546;6.776;2023-09-19T03:12:36;15.70;67.10
70184;DHT22;57554;51.546;6.776;2023-09-19T03:15:03;15.70;67.00
70184;DHT22;57554;51.546;6.776;2023-09-19T03:17:30;15.60;67.00
70184;DHT22;57554;51.546;6.776;2023-09-19T03:19:55;15.60;66.90
70184;DHT22;57554;51.546;6.776;2023-09-19T03:22:22;15.60;66.80
70184;DHT22;57554;51.546;6.776;2023-09-19T03:24:50;15.60;66.70
70184;DHT22;57554;51.546;6.776;2023-09-19T03:27:15;15.60;66.60
70184;DHT22;57554;51.546;6.776;2023-09-19T03:29:42;15.60;66.50
70184;DHT22;57554;51.546;6.776;2023-09-19T03:32:08;15.50;66.40
70184;DHT22;57554;51.546;6.776;2023-09-19T03:34:37;15.50;66.30
70184;DHT22;57554;51.546;6.776;2023-09-19T03:37:06;15.50;66.20
70184;DHT22;57554;51.546;6.776;2023-09-19T03:39:32;15.50;66.20
70184;DHT22;57554;51.546;6.776;2023-09-19T03:41:58;15.50;66.10
70184;DHT22;57554;51.546;6.776;2023-09-19T03:44:23;15.50;66.00
70184;DHT22;57554;51.546;6.776;2023-09-19T03:46:49;15.50;66.00
70184;DHT22;57554;51.546;6.776;2023-09-19T03:49:14;15.40;66.10
70184;DHT22;57554;51.546;6.776;2023-09-19T03:51:40;15.40;66.00
70184;DHT22;57554;51.546;6.776;2023-09-19T03:54:07;15.40;66.00
70184;DHT22;57554;51.546;6.776;2023-09-19T03:56:32;15.40;66.00
70184;DHT22;57554;51.546;6.776;2023-09-19T03:58:58;15.40;66.00
70184;DHT22;57554;51.546;6.776;2023-09-19T04:01:24;15.40;66.10
70184;DHT22;57554;51.546;6.776;2023-09-19T04:03:49;15.30;66.10
70184;DHT22;57554;51.546;6.776;2023-09-19T04:06:17;15.30;66.10
70184;DHT22;57554;51.546;6.776;2023-09-19T04:08:43;15.40;66.20
70184;DHT22;57554;51.546;6.776;2023-09-19T04:11:10;15.30;66.30
70184;DHT22;57554;51.546;6.776;2023-09-19T04:13:36;15.40;66.30
70184;DHT22;57554;51.546;6.776;2023-09-19T04:16:02;15.30;66.40
70184;DHT22;57554;51.546;6.776;2023-09-19T04:18:29;15.30;66.40
70184;DHT22;57554;51.546;6.776;2023-09-19T04:20:58;15.30;66.50
70184;DHT22;57554;51.546;6.776;2023-09-19T04:23:23;15.30;66.70
70184;DHT22;57554;51.546;6.776;2023-09-19T04:25:49;15.30;66.90
70184;DHT22;57554;51.546;6.776;2023-09-19T04:28:15;15.30;67.10
70184;DHT22;57554;51.546;6.776;2023-09-19T04:30:41;15.30;67.30
70184;DHT22;57554;51.546;6.776;2023-09-19T04:33:06;15.30;67.50
70184;DHT22;57554;51.546;6.776;2023-09-19T04:35:32;15.30;67.70
70184;DHT22;57554;51.546;6.776;2023-09-19T04:37:58;15.30;68.00
70184;DHT22;57554;51.546;6.776;2023-09-19T04:40:24;15.30;68.30
70184;DHT22;57554;51.546;6.776;2023-09-19T04:42:56;15.30;68.50
70184;DHT22;57554;51.546;6.776;2023-09-19T04:45:26;15.30;68.70
70184;DHT22;57554;51.546;6.776;2023-09-19T04:47:52;15.30;68.80
70184;DHT22;57554;51.546;6.776;2023-09-19T04:50:18;15.30;69.00
70184;DHT22;57554;51.546;6.776;2023-09-19T04:52:44;15.30;69.10
70184;DHT22;57554;51.546;6.776;2023-09-19T04:55:19;15.30;69.20
70184;DHT22;57554;51.546;6.776;2023-09-19T04:57:48;15.30;69.30
70184;DHT22;57554;51.546;6.776;2023-09-19T05:00:16;15.30;69.30
70184;DHT22;57554;51.546;6.776;2023-09-19T05:02:42;15.30;69.40
70184;DHT22;57554;51.546;6.776;2023-09-19T05:05:09;15.30;69.40
70184;DHT22;57554;51.546;6.776;2023-09-19T05:07:42;15.30;69.40
70184;DHT22;57554;51.546;6.776;2023-09-19T05:10:08;15.30;69.40
70184;DHT22;57554;51.546;6.776;2023-09-19T05:12:35;15.30;69.50
70184;DHT22;57554;51.546;6.776;2023-09-19T05:15:05;15.30;69.50
70184;DHT22;57554;51.546;6.776;2023-09-19T05:17:32;15.30;69.50
70184;DHT22;57554;51.546;6.776;2023-09-19T05:19:58;15.30;69.60
70184;DHT22;57554;51.546;6.776;2023-09-19T05:22:26;15.30;69.50
70184;DHT22;57554;51.546;6.776;2023-09-19T05:24:52;15.30;69.60
70184;DHT22;57554;51.546;6.776;2023-09-19T05:27:18;15.30;69.60
70184;DHT22;57554;51.546;6.776;2023-09-19T05:29:44;15.30;69.70
70184;DHT22;57554;51.546;6.776;2023-09-19T05:32:10;15.30;69.60
70184;DHT22;57554;51.546;6.776;2023-09-19T05:34:36;15.40;69.60
70184;DHT22;57554;51.546;6.776;2023-09-19T05:37:02;15.40;69.70
70184;DHT22;57554;51.546;6.776;2023-09-19T05:39:28;15.40;69.60
70184;DHT22;57554;51.546;6.776;2023-09-19T05:41:53;15.40;69.50
70184;DHT22;57554;51.546;6.776;2023-09-19T05:44:23;15.40;69.50
70184;DHT22;57554;51.546;6.776;2023-09-19T05:46:49;15.50;69.40
70184;DHT22;57554;51.546;6.776;2023-09-19T05:49:15;15.50;69.40
70184;DHT22;57554;51.546;6.776;2023-09-19T05:51:41;15.50;69.40
70184;DHT22;57554;51.546;6.776;2023-09-19T05:54:06;15.50;69.50
70184;DHT22;57554;51.546;6.776;2023-09-19T05:56:32;15.50;69.30
70184;DHT22;57554;51.546;6.776;2023-09-19T05:58:57;15.50;69.30
70184;DHT22;57554;51.546;6.776;2023-09-19T06:01:23;15.60;69.40
70184;DHT22;57554;51.546;6.776;2023-09-19T06:03:48;15.60;69.30
70184;DHT22;57554;51.546;6.776;2023-09-19T06:06:14;15.60;69.20
70184;DHT22;57554;51.546;6.776;2023-09-19T06:08:40;15.60;69.10
70184;DHT22;57554;51.546;6.776;2023-09-19T06:11:05;15.70;69.00
70184;DHT22;57554;51.546;6.776;2023-09-19T06:13:34;15.70;68.90
70184;DHT22;57554;51.546;6.776;2023-09-19T06:16:01;15.70;68.70
70184;DHT22;57554;51.546;6.776;2023-09-19T06:18:31;15.70;68.60
70184;DHT22;57554;51.546;6.776;2023-09-19T06:20:59;15.80;68.50
70184;DHT22;57554;51.546;6.776;2023-09-19T06:23:25;15.80;68.50
70184;DHT22;57554;51.546;6.776;2023-09-19T06:25:52;15.80;68.30
70184;DHT22;57554;51.546;6.776;2023-09-19T06:28:19;15.80;68.30
70184;DHT22;57554;51.546;6.776;2023-09-19T06:30:49;15.90;68.10
70184;DHT22;57554;51.546;6.776;2023-09-19T06:33:15;15.90;68.10
70184;DHT22;57554;51.546;6.776;2023-09-19T06:35:41;15.90;67.90
70184;DHT22;57554;51.546;6.776;2023-09-19T06:38:07;15.90;67.90
70184;DHT22;57554;51.546;6.776;2023-09-19T06:40:34;15.90;67.80
70184;DHT22;57554;51.546;6.776;2023-09-19T06:42:59;15.90;67.90
70184;DHT22;57554;51.546;6.776;2023-09-19T06:45:27;15.90;67.90
70184;DHT22;57554;51.546;6.776;2023-09-19T06:47:53;15.90;67.90
70184;DHT22;57554;51.546;6.776;2023-09-19T06:50:23;15.90;67.90
70184;DHT22;57554;51.546;6.776;2023-09-19T06:52:53;15.90;67.90
70184;DHT22;57554;51.546;6.776;2023-09-19T06:55:21;15.90;67.90
70184;DHT22;57554;51.546;6.776;2023-09-19T06:57:50;15.90;68.00
70184;DHT22;57554;51.546;6.776;2023-09-19T07:00:16;16.00;67.80
70184;DHT22;57554;51.546;6.776;2023-09-19T07:02:56;16.00;67.90
70184;DHT22;57554;51.546;6.776;2023-09-19T07:05:22;16.00;68.10
70184;DHT22;57554;51.546;6.776;2023-09-19T07:07:48;16.00;68.10
70184;DHT22;57554;51.546;6.776;2023-09-19T07:10:14;16.00;68.20
70184;DHT22;57554;51.546;6.776;2023-09-19T07:12:39;16.10;68.30
70184;DHT22;57554;51.546;6.776;2023-09-19T07:15:06;16.10;68.30
70184;DHT22;57554;51.546;6.776;2023-09-19T07:17:32;16.10;68.30
70184;DHT22;57554;51.546;6.776;2023-09-19T07:19:58;16.10;68.40
70184;DHT22;57554;51.546;6.776;2023-09-19T07:22:26;16.10;68.70
70184;DHT22;57554;51.546;6.776;2023-09-19T07:24:52;16.10;68.50
70184;DHT22;57554;51.546;6.776;2023-09-19T07:27:17;16.20;68.40
70184;DHT22;57554;51.546;6.776;2023-09-19T07:29:43;16.20;68.50
70184;DHT22;57554;51.546;6.776;2023-09-19T07:32:10;16.30;68.60
70184;DHT22;57554;51.546;6.776;2023-09-19T07:34:35;16.30;68.30
70184;DHT22;57554;51.546;6.776;2023-09-19T07:37:01;16.30;68.40
70184;DHT22;57554;51.546;6.776;2023-09-19T07:39:28;16.40;68.20
70184;DHT22;57554;51.546;6.776;2023-09-19T07:41:53;16.40;68.40
70184;DHT22;57554;51.546;6.776;2023-09-19T07:44:19;16.40;68.40
70184;DHT22;57554;51.546;6.776;2023-09-19T07:46:45;16.50;68.40
70184;DHT22;57554;51.546;6.776;2023-09-19T07:49:11;16.50;68.30
70184;DHT22;57554;51.546;6.776;2023-09-19T07:51:36;16.50;68.20
70184;DHT22;57554;51.546;6.776;2023-09-19T07:54:02;16.50;68.30
70184;DHT22;57554;51.546;6.776;2023-09-19T07:56:28;16.50;68.00
70184;DHT22;57554;51.546;6.776;2023-09-19T07:58:53;16.50;67.90
70184;DHT22;57554;51.546;6.776;2023-09-19T08:01:19;16.50;67.90
70184;DHT22;57554;51.546;6.776;2023-09-19T08:03:44;16.60;68.00
70184;DHT22;57554;51.546;6.776;2023-09-19T08:06:10;16.60;68.30
70184;DHT22;57554;51.546;6.776;2023-09-19T08:08:37;16.70;68.20
70184;DHT22;57554;51.546;6.776;2023-09-19T08:11:04;16.70;68.30
70184;DHT22;57554;51.546;6.776;2023-09-19T08:13:37;16.80;68.00
70184;DHT22;57554;51.546;6.776;2023-09-19T08:16:08;16.80;67.90
70184;DHT22;57554;51.546;6.776;2023-09-19T08:18:34;16.90;67.80
70184;DHT22;57554;51.546;6.776;2023-09-19T08:21:00;16.90;67.80
70184;DHT22;57554;51.546;6.776;2023-09-19T08:23:26;17.00;67.70
70184;DHT22;57554;51.546;6.776;2023-09-19T08:25:56;17.00;67.40
70184;DHT22;57554;51.546;6.776;2023-09-19T08:28:21;17.00;67.20
70184;DHT22;57554;51.546;6.776;2023-09-19T08:30:50;17.00;67.20
70184;DHT22;57554;51.546;6.776;2023-09-19T08:33:16;17.10;66.90
70184;DHT22;57554;51.546;6.776;2023-09-19T08:35:42;17.10;66.60
70184;DHT22;57554;51.546;6.776;2023-09-19T08:38:08;17.10;66.60
70184;DHT22;57554;51.546;6.776;2023-09-19T08:40:37;17.10;66.90
70184;DHT22;57554;51.546;6.776;2023-09-19T08:43:05;17.20;66.90
70184;DHT22;57554;51.546;6.776;2023-09-19T08:45:32;17.30;66.80
70184;DHT22;57554;51.546;6.776;2023-09-19T08:48:24;17.40;66.40
70184;DHT22;57554;51.546;6.776;2023-09-19T08:51:06;17.40;66.00
70184;DHT22;57554;51.546;6.776;2023-09-19T08:53:43;17.40;65.80
70184;DHT22;57554;51.546;6.776;2023-09-19T08:56:12;17.50;66.20
70184;DHT22;57554;51.546;6.776;2023-09-19T08:58:48;17.60;65.50
70184;DHT22;57554;51.546;6.776;2023-09-19T09:01:16;17.60;65.50
70184;DHT22;57554;51.546;6.776;2023-09-19T09:03:48;17.80;65.70
70184;DHT22;57554;51.546;6.776;2023-09-19T09:06:14;17.90;65.10
70184;DHT22;57554;51.546;6.776;2023-09-19T09:08:42;17.90;65.00
70184;DHT22;57554;51.546;6.776;2023-09-19T09:11:08;18.00;64.00
70184;DHT22;57554;51.546;6.776;2023-09-19T09:13:36;18.00;64.00
70184;DHT22;57554;51.546;6.776;2023-09-19T09:16:02;18.00;63.40
70184;DHT22;57554;51.546;6.776;2023-09-19T09:18:29;18.00;63.10
70184;DHT22;57554;51.546;6.776;2023-09-19T09:20:57;18.00;63.10
70184;DHT22;57554;51.546;6.776;2023-09-19T09:23:23;18.00;63.20
70184;DHT22;57554;51.546;6.776;2023-09-19T09:25:54;18.10;62.90
70184;DHT22;57554;51.546;6.776;2023-09-19T09:28:28;18.10;62.80
70184;DHT22;57554;51.546;6.776;2023-09-19T09:30:57;18.20;62.90
70184;DHT22;57554;51.546;6.776;2023-09-19T09:33:34;18.30;62.60
70184;DHT22;57554;51.546;6.776;2023-09-19T09:36:00;18.40;62.00
70184;DHT22;57554;51.546;6.776;2023-09-19T09:38:30;18.40;61.80
70184;DHT22;57554;51.546;6.776;2023-09-19T09:41:09;18.30;62.00
70184;DHT22;57554;51.546;6.776;2023-09-19T09:43:39;18.30;61.50
70184;DHT22;57554;51.546;6.776;2023-09-19T09:48:46;18.30;61.20
70184;DHT22;57554;51.546;6.776;2023-09-19T09:51:32;18.30;61.70
70184;DHT22;57554;51.546;6.776;2023-09-19T09:54:18;18.40;61.70
70184;DHT22;57554;51.546;6.776;2023-09-19T09:56:57;18.50;61.50
70184;DHT22;57554;51.546;6.776;2023-09-19T10:02:18;18.60;60.80
70184;DHT22;57554;51.546;6.776;2023-09-19T10:04:51;18.70;60.60
70184;DHT22;57554;51.546;6.776;2023-09-19T10:07:28;18.80;61.20
70184;DHT22;57554;51.546;6.776;2023-09-19T10:09:59;18.90;60.40
70184;DHT22;57554;51.546;6.776;2023-09-19T10:12:31;19.00;60.40
70184;DHT22;57554;51.546;6.776;2023-09-19T10:15:00;19.00;60.00
70184;DHT22;57554;51.546;6.776;2023-09-19T10:17:29;19.00;59.80
70184;DHT22;57554;51.546;6.776;2023-09-19T10:19:57;19.00;59.70
70184;DHT22;57554;51.546;6.776;2023-09-19T10:22:26;19.00;59.50
70184;DHT22;57554;51.546;6.776;2023-09-19T10:24:53;19.00;58.90
70184;DHT22;57554;51.546;6.776;2023-09-19T10:27:20;18.90;58.90
70184;DHT22;57554;51.546;6.776;2023-09-19T10:29:49;18.90;58.70
70184;DHT22;57554;51.546;6.776;2023-09-19T10:32:16;19.00;58.80
70184;DHT22;57554;51.546;6.776;2023-09-19T10:34:46;19.10;58.70
70184;DHT22;57554;51.546;6.776;2023-09-19T10:37:13;19.10;58.40
70184;DHT22;57554;51.546;6.776;2023-09-19T10:39:40;19.20;59.10
70184;DHT22;57554;51.546;6.776;2023-09-19T10:42:07;19.20;58.50
70184;DHT22;57554;51.546;6.776;2023-09-19T10:44:38;19.30;58.30
70184;DHT22;57554;51.546;6.776;2023-09-19T10:47:09;19.30;57.50
70184;DHT22;57554;51.546;6.776;2023-09-19T10:49:34;19.30;57.90
70184;DHT22;57554;51.546;6.776;2023-09-19T10:52:01;19.30;57.80
70184;DHT22;57554;51.546;6.776;2023-09-19T10:54:31;19.30;56.50
70184;DHT22;57554;51.546;6.776;2023-09-19T10:56:59;19.20;56.10
70184;DHT22;57554;51.546;6.776;2023-09-19T10:59:26;19.20;56.60
70184;DHT22;57554;51.546;6.776;2023-09-19T11:02:00;19.30;56.60
70184;DHT22;57554;51.546;6.776;2023-09-19T11:04:40;19.30;56.90
70184;DHT22;57554;51.546;6.776;2023-09-19T11:07:12;19.40;56.60
70184;DHT22;57554;51.546;6.776;2023-09-19T11:09:50;19.40;56.80
70184;DHT22;57554;51.546;6.776;2023-09-19T11:26:48;19.60;57.20
70184;DHT22;57554;51.546;6.776;2023-09-19T11:29:32;19.70;56.30
70184;DHT22;57554;51.546;6.776;2023-09-19T11:31:58;19.80;56.30
70184;DHT22;57554;51.546;6.776;2023-09-19T11:40:08;19.70;55.20
70184;DHT22;57554;51.546;6.776;2023-09-19T11:42:42;19.60;56.20
70184;DHT22;57554;51.546;6.776;2023-09-19T11:48:15;19.70;55.90
70184;DHT22;57554;51.546;6.776;2023-09-19T11:50:45;19.70;56.40
70184;DHT22;57554;51.546;6.776;2023-09-19T11:53:12;19.80;56.80
70184;DHT22;57554;51.546;6.776;2023-09-19T11:55:39;20.00;55.20
70184;DHT22;57554;51.546;6.776;2023-09-19T11:58:07;20.00;54.90
70184;DHT22;57554;51.546;6.776;2023-09-19T12:00:35;20.00;54.40
70184;DHT22;57554;51.546;6.776;2023-09-19T12:03:05;20.00;54.20
70184;DHT22;57554;51.546;6.776;2023-09-19T12:05:33;19.90;53.90
70184;DHT22;57554;51.546;6.776;2023-09-19T12:07:59;19.90;54.00
70184;DHT22;57554;51.546;6.776;2023-09-19T12:10:24;19.90;54.00
70184;DHT22;57554;51.546;6.776;2023-09-19T12:12:50;19.90;53.70
70184;DHT22;57554;51.546;6.776;2023-09-19T12:15:23;19.90;54.10
70184;DHT22;57554;51.546;6.776;2023-09-19T12:17:54;19.90;54.20
70184;DHT22;57554;51.546;6.776;2023-09-19T12:20:19;20.00;53.90
70184;DHT22;57554;51.546;6.776;2023-09-19T12:22:46;20.10;53.20
70184;DHT22;57554;51.546;6.776;2023-09-19T12:25:16;20.10;52.60
70184;DHT22;57554;51.546;6.776;2023-09-19T12:27:47;20.10;52.60
70184;DHT22;57554;51.546;6.776;2023-09-19T12:30:14;20.20;52.50
70184;DHT22;57554;51.546;6.776;2023-09-19T12:32:42;20.20;52.50
70184;DHT22;57554;51.546;6.776;2023-09-19T12:35:08;20.20;51.80
70184;DHT22;57554;51.546;6.776;2023-09-19T12:37:43;20.20;52.30
70184;DHT22;57554;51.546;6.776;2023-09-19T12:40:13;20.20;51.60
70184;DHT22;57554;51.546;6.776;2023-09-19T12:42:41;20.30;51.80
70184;DHT22;57554;51.546;6.776;2023-09-19T12:45:07;20.40;51.50
70184;DHT22;57554;51.546;6.776;2023-09-19T12:47:35;20.40;51.00
70184;DHT22;57554;51.546;6.776;2023-09-19T12:50:13;20.50;50.80
70184;DHT22;57554;51.546;6.776;2023-09-19T12:52:40;20.50;50.70
70184;DHT22;57554;51.546;6.776;2023-09-19T12:55:06;20.50;50.90
70184;DHT22;57554;51.546;6.776;2023-09-19T12:57:36;20.60;50.40
70184;DHT22;57554;51.546;6.776;2023-09-19T13:00:05;20.60;50.40
70184;DHT22;57554;51.546;6.776;2023-09-19T13:02:31;20.50;50.50
70184;DHT22;57554;51.546;6.776;2023-09-19T13:04:58;20.60;50.80
70184;DHT22;57554;51.546;6.776;2023-09-19T13:07:45;20.60;50.90
70184;DHT22;57554;51.546;6.776;2023-09-19T13:10:15;20.70;51.10
70184;DHT22;57554;51.546;6.776;2023-09-19T13:12:43;20.90;50.10
70184;DHT22;57554;51.546;6.776;2023-09-19T13:15:14;20.80;49.60
70184;DHT22;57554;51.546;6.776;2023-09-19T13:17:49;20.70;49.80
70184;DHT22;57554;51.546;6.776;2023-09-19T13:20:25;20.70;50.40
70184;DHT22;57554;51.546;6.776;2023-09-19T13:22:55;20.80;49.80
70184;DHT22;57554;51.546;6.776;2023-09-19T13:25:25;20.80;50.30
70184;DHT22;57554;51.546;6.776;2023-09-19T13:27:54;20.80;50.10
70184;DHT22;57554;51.546;6.776;2023-09-19T13:30:23;20.70;50.10
70184;DHT22;57554;51.546;6.776;2023-09-19T13:32:50;20.60;50.60
70184;DHT22;57554;51.546;6.776;2023-09-19T13:35:16;20.60;51.10
70184;DHT22;57554;51.546;6.776;2023-09-19T13:37:43;20.70;50.70
70184;DHT22;57554;51.546;6.776;2023-09-19T13:40:11;20.60;50.60
70184;DHT22;57554;51.546;6.776;2023-09-19T13:42:37;20.60;50.70
70184;DHT22;57554;51.546;6.776;2023-09-19T13:45:03;20.60;50.80
70184;DHT22;57554;51.546;6.776;2023-09-19T13:47:33;20.50;50.90
70184;DHT22;57554;51.546;6.776;2023-09-19T13:50:00;20.50;51.10
70184;DHT22;57554;51.546;6.776;2023-09-19T13:52:26;20.40;51.70
70184;DHT22;57554;51.546;6.776;2023-09-19T13:54:53;20.40;51.40
70184;DHT22;57554;51.546;6.776;2023-09-19T13:57:22;20.40;51.70
70184;DHT22;57554;51.546;6.776;2023-09-19T13:59:47;20.40;52.00
70184;DHT22;57554;51.546;6.776;2023-09-19T14:02:13;20.30;52.00
70184;DHT22;57554;51.546;6.776;2023-09-19T14:04:39;20.30;52.10
70184;DHT22;57554;51.546;6.776;2023-09-19T14:07:05;20.30;52.40
70184;DHT22;57554;51.546;6.776;2023-09-19T14:09:32;20.30;52.40
70184;DHT22;57554;51.546;6.776;2023-09-19T14:11:59;20.30;52.60
70184;DHT22;57554;51.546;6.776;2023-09-19T14:14:24;20.20;52.60
70184;DHT22;57554;51.546;6.776;2023-09-19T14:16:50;20.20;52.80
70184;DHT22;57554;51.546;6.776;2023-09-19T14:19:17;20.20;53.20
70184;DHT22;57554;51.546;6.776;2023-09-19T14:21:43;20.20;53.30
70184;DHT22;57554;51.546;6.776;2023-09-19T14:24:09;20.20;53.20
70184;DHT22;57554;51.546;6.776;2023-09-19T14:26:38;20.10;53.20
70184;DHT22;57554;51.546;6.776;2023-09-19T14:29:04;20.10;53.40
70184;DHT22;57554;51.546;6.776;2023-09-19T14:31:33;20.20;53.60
70184;DHT22;57554;51.546;6.776;2023-09-19T14:33:59;20.20;53.60
70184;DHT22;57554;51.546;6.776;2023-09-19T14:36:25;20.30;53.50
70184;DHT22;57554;51.546;6.776;2023-09-19T14:38:55;20.20;53.50
70184;DHT22;57554;51.546;6.776;2023-09-19T14:41:20;20.20;53.50
70184;DHT22;57554;51.546;6.776;2023-09-19T14:43:46;20.20;53.60
70184;DHT22;57554;51.546;6.776;2023-09-19T14:46:12;20.10;53.50
70184;DHT22;57554;51.546;6.776;2023-09-19T14:48:38;20.10;53.80
70184;DHT22;57554;51.546;6.776;2023-09-19T14:51:04;20.10;53.70
70184;DHT22;57554;51.546;6.776;2023-09-19T14:53:31;20.10;53.70
70184;DHT22;57554;51.546;6.776;2023-09-19T14:56:00;20.10;53.50
70184;DHT22;57554;51.546;6.776;2023-09-19T14:58:25;20.00;54.10
70184;DHT22;57554;51.546;6.776;2023-09-19T15:01:11;20.00;54.40
70184;DHT22;57554;51.546;6.776;2023-09-19T15:03:38;20.00;54.30
70184;DHT22;57554;51.546;6.776;2023-09-19T15:06:10;20.00;54.20
70184;DHT22;57554;51.546;6.776;2023-09-19T15:08:41;20.00;54.20
70184;DHT22;57554;51.546;6.776;2023-09-19T15:11:11;20.00;54.10
70184;DHT22;57554;51.546;6.776;2023-09-19T15:13:38;20.00;53.80
70184;DHT22;57554;51.546;6.776;2023-09-19T15:16:05;20.00;54.10
70184;DHT22;57554;51.546;6.776;2023-09-19T15:18:37;20.00;54.10
70184;DHT22;57554;51.546;6.776;2023-09-19T15:21:04;20.00;53.60
70184;DHT22;57554;51.546;6.776;2023-09-19T15:23:33;19.90;53.60
70184;DHT22;57554;51.546;6.776;2023-09-19T15:26:00;20.00;53.70
70184;DHT22;57554;51.546;6.776;2023-09-19T15:28:27;20.00;54.00
70184;DHT22;57554;51.546;6.776;2023-09-19T15:33:29;20.10;54.00
70184;DHT22;57554;51.546;6.776;2023-09-19T15:36:06;20.10;53.90
70184;DHT22;57554;51.546;6.776;2023-09-19T15:41:23;20.20;53.70
70184;DHT22;57554;51.546;6.776;2023-09-19T15:43:49;20.20;53.20
70184;DHT22;57554;51.546;6.776;2023-09-19T15:46:15;20.10;53.20
70184;DHT22;57554;51.546;6.776;2023-09-19T15:48:41;20.10;53.30
70184;DHT22;57554;51.546;6.776;2023-09-19T15:51:07;20.10;53.50
70184;DHT22;57554;51.546;6.776;2023-09-19T15:53:47;20.10;53.60
70184;DHT22;57554;51.546;6.776;2023-09-19T15:56:14;20.10;53.50
70184;DHT22;57554;51.546;6.776;2023-09-19T15:58:40;20.10;53.50
70184;DHT22;57554;51.546;6.776;2023-09-19T16:01:07;20.10;53.30
70184;DHT22;57554;51.546;6.776;2023-09-19T16:03:37;20.00;53.70
70184;DHT22;57554;51.546;6.776;2023-09-19T16:06:11;20.00;54.00
70184;DHT22;57554;51.546;6.776;2023-09-19T16:08:41;20.00;54.00
70184;DHT22;57554;51.546;6.776;2023-09-19T16:11:07;20.00;53.70
70184;DHT22;57554;51.546;6.776;2023-09-19T16:13:33;20.10;53.80
70184;DHT22;57554;51.546;6.776;2023-09-19T16:15:59;20.10;53.70
70184;DHT22;57554;51.546;6.776;2023-09-19T16:18:24;20.10;54.00
70184;DHT22;57554;51.546;6.776;2023-09-19T16:20:50;20.00;53.70
70184;DHT22;57554;51.546;6.776;2023-09-19T16:23:15;20.00;53.80
70184;DHT22;57554;51.546;6.776;2023-09-19T16:25:41;20.00;53.80
70184;DHT22;57554;51.546;6.776;2023-09-19T16:28:07;20.00;53.60